Time;durP1;ratioP1;P1;durP2;ratioP2;P2;SDS_P1;SDS_P2;PMS_P1;PMS_P2;Temp;Humidity;BMP_temperature;BMP_pressure;BME280_temperature;BME280_humidity;BME280_pressure;Samples;Min_cycle;Max_cycle;Signal;HPM_P1;HPM_P2
2022/12/20 00:01:16;;;;;;;36.13;22.03;;;3.20;99.90;;;;;;5023562;28;20449;-72
2022/12/20 00:03:43;;;;;;;36.23;20.63;;;3.20;99.90;;;;;;5017229;28;20426;-71
2022/12/20 00:06:10;;;;;;;31.83;19.30;;;3.20;99.90;;;;;;5015831;28;20518;-73
2022/12/20 00:08:36;;;;;;;34.23;20.77;;;3.20;99.90;;;;;;5019250;28;20440;-72
2022/12/20 00:11:03;;;;;;;32.13;19.33;;;3.10;99.90;;;;;;5018569;28;20456;-72
2022/12/20 00:13:30;;;;;;;31.43;20.13;;;3.10;99.90;;;;;;5011290;28;20437;-72
2022/12/20 00:16:17;;;;;;;34.77;20.43;;;3.00;99.90;;;;;;5010527;28;20444;-73
2022/12/20 00:18:43;;;;;;;31.07;18.67;;;3.00;99.90;;;;;;5007158;28;20420;-74
2022/12/20 00:21:11;;;;;;;35.30;20.80;;;3.00;99.90;;;;;;5014091;28;20428;-72
2022/12/20 00:23:38;;;;;;;35.20;19.47;;;3.00;99.90;;;;;;5017699;28;20419;-72
2022/12/20 00:26:09;;;;;;;31.13;18.63;;;2.90;99.90;;;;;;5017304;28;20408;-73
2022/12/20 00:28:36;;;;;;;31.73;17.93;;;2.90;99.90;;;;;;5017586;28;20391;-72
2022/12/20 00:31:02;;;;;;;23.93;16.93;;;2.90;99.90;;;;;;5018182;28;20505;-72
2022/12/20 00:33:29;;;;;;;27.70;17.50;;;2.80;99.90;;;;;;5017166;28;20414;-72
2022/12/20 00:35:55;;;;;;;28.43;18.33;;;2.80;99.90;;;;;;5016516;28;20482;-72
2022/12/20 00:38:23;;;;;;;24.27;17.10;;;2.70;99.90;;;;;;5015511;28;20393;-71
2022/12/20 00:41:02;;;;;;;30.37;16.80;;;2.70;99.90;;;;;;5015087;28;20469;-73
2022/12/20 00:43:28;;;;;;;28.90;17.43;;;2.70;99.90;;;;;;5013546;28;20420;-71
2022/12/20 00:45:54;;;;;;;28.00;17.50;;;2.70;99.90;;;;;;5013738;28;20449;-72
2022/12/20 00:48:19;;;;;;;24.17;16.83;;;2.70;99.90;;;;;;5013369;28;20819;-72
2022/12/20 00:50:45;;;;;;;27.17;16.50;;;2.70;99.90;;;;;;5013386;28;20590;-70
2022/12/20 00:53:10;;;;;;;25.63;17.43;;;2.70;99.90;;;;;;5013126;28;20215;-71
2022/12/20 00:55:45;;;;;;;23.20;14.97;;;2.80;99.90;;;;;;5013467;28;20187;-71
2022/12/20 00:58:12;;;;;;;28.13;16.23;;;2.90;99.90;;;;;;5015310;28;20195;-72
2022/12/20 01:00:39;;;;;;;21.27;15.07;;;2.90;99.90;;;;;;5015129;28;20453;-71
2022/12/20 01:03:04;;;;;;;26.43;16.60;;;3.00;99.90;;;;;;5014838;28;20428;-71
2022/12/20 01:05:30;;;;;;;28.73;17.70;;;3.10;99.90;;;;;;5014935;28;20456;-71
2022/12/20 01:07:56;;;;;;;24.80;16.90;;;3.10;99.90;;;;;;5015145;28;20192;-71
2022/12/20 01:10:21;;;;;;;26.07;17.27;;;3.10;99.90;;;;;;5014864;28;20239;-71
2022/12/20 01:12:47;;;;;;;25.33;16.10;;;3.20;99.90;;;;;;5014761;28;20205;-71
2022/12/20 01:15:13;;;;;;;23.13;15.67;;;3.20;99.90;;;;;;5014605;28;20204;-72
2022/12/20 01:17:38;;;;;;;25.13;15.57;;;3.20;99.90;;;;;;5014702;28;20225;-72
2022/12/20 01:20:05;;;;;;;23.13;16.00;;;3.20;99.90;;;;;;5014691;28;20703;-72
2022/12/20 01:22:30;;;;;;;24.17;15.40;;;3.20;99.90;;;;;;5013811;28;20206;-72
2022/12/20 01:24:56;;;;;;;22.20;15.27;;;3.20;99.90;;;;;;5014174;28;20489;-71
2022/12/20 01:27:21;;;;;;;23.10;16.70;;;3.20;99.90;;;;;;5014406;28;20668;-71
2022/12/20 01:29:47;;;;;;;22.40;14.47;;;3.20;99.90;;;;;;5014438;28;20534;-71
2022/12/20 01:32:13;;;;;;;22.90;15.70;;;3.30;99.90;;;;;;5012750;28;20311;-70
2022/12/20 01:34:38;;;;;;;28.03;17.50;;;3.20;99.90;;;;;;5013047;28;20212;-72
2022/12/20 01:37:04;;;;;;;20.47;15.33;;;3.30;99.90;;;;;;5013350;28;20252;-74
2022/12/20 01:39:29;;;;;;;18.43;13.83;;;3.30;99.90;;;;;;5013010;28;20608;-71
2022/12/20 01:41:55;;;;;;;23.63;15.70;;;3.30;99.90;;;;;;5012556;28;20206;-72
2022/12/20 01:44:20;;;;;;;20.83;14.97;;;3.20;99.90;;;;;;5012724;28;20610;-72
2022/12/20 01:46:47;;;;;;;20.07;15.70;;;3.20;99.90;;;;;;5012980;28;20701;-71
2022/12/20 01:49:33;;;;;;;31.50;16.27;;;3.10;99.90;;;;;;5013122;28;20213;-71
2022/12/20 01:52:09;;;;;;;23.27;15.93;;;3.10;99.90;;;;;;5012818;28;20454;-73
2022/12/20 01:54:52;;;;;;;29.57;14.77;;;3.10;99.90;;;;;;5013533;28;20463;-74
2022/12/20 01:57:21;;;;;;;31.03;15.37;;;3.20;99.90;;;;;;5012876;28;20956;-73
2022/12/20 01:59:49;;;;;;;21.27;14.83;;;3.10;99.90;;;;;;4995447;28;20424;-73
2022/12/20 03:32:52;;;;;;;16.30;10.53;;;4.00;99.90;;;;;;5041088;23;1034155;-71
2022/12/20 03:35:17;;;;;;;15.77;10.93;;;4.00;99.90;;;;;;5000829;28;20189;-73
2022/12/20 03:37:43;;;;;;;17.90;10.80;;;4.10;99.90;;;;;;5012031;28;20221;-74
2022/12/20 03:40:09;;;;;;;14.60;10.80;;;4.20;99.90;;;;;;5012009;28;20185;-75
2022/12/20 03:42:35;;;;;;;21.00;10.77;;;4.30;99.90;;;;;;5011937;28;20183;-74
2022/12/20 03:45:02;;;;;;;12.33;9.87;;;4.30;99.90;;;;;;5012152;28;20406;-72
2022/12/20 03:47:27;;;;;;;14.07;11.00;;;4.30;99.90;;;;;;4995025;28;20434;-74
2022/12/20 03:49:53;;;;;;;15.90;10.70;;;4.30;99.90;;;;;;4992256;28;20412;-75
2022/12/20 03:52:18;;;;;;;16.43;10.70;;;4.30;99.90;;;;;;4991974;28;20247;-74
2022/12/20 03:54:44;;;;;;;14.23;10.37;;;4.30;99.90;;;;;;4991554;28;20209;-75
2022/12/20 03:57:09;;;;;;;16.90;12.40;;;4.30;99.90;;;;;;4991799;28;20202;-74
2022/12/20 03:59:35;;;;;;;16.80;10.83;;;4.30;99.90;;;;;;4992089;28;20178;-74
2022/12/20 04:02:02;;;;;;;17.47;10.97;;;4.30;99.90;;;;;;4991847;28;20191;-75
2022/12/20 04:04:28;;;;;;;20.60;13.77;;;4.30;99.90;;;;;;4992054;28;20192;-74
2022/12/20 04:06:53;;;;;;;19.07;12.57;;;4.20;99.90;;;;;;4992178;28;20415;-75
2022/12/20 04:09:19;;;;;;;22.60;12.73;;;4.20;99.90;;;;;;4990967;28;20613;-74
2022/12/20 04:11:44;;;;;;;20.97;14.77;;;4.20;99.90;;;;;;4991787;28;20222;-75
2022/12/20 04:14:10;;;;;;;19.27;13.43;;;4.20;99.90;;;;;;4992160;28;20216;-74
2022/12/20 04:16:35;;;;;;;20.60;14.33;;;4.20;99.90;;;;;;4991929;28;20206;-74
2022/12/20 04:19:01;;;;;;;16.80;12.60;;;4.20;99.90;;;;;;4992024;28;20210;-74
2022/12/20 04:21:29;;;;;;;15.20;11.20;;;4.20;99.90;;;;;;4991674;28;20235;-74
2022/12/20 04:23:55;;;;;;;23.90;14.07;;;4.20;99.90;;;;;;4992129;28;20270;-74
2022/12/20 04:26:21;;;;;;;22.47;12.90;;;4.20;99.90;;;;;;4992209;28;20428;-73
2022/12/20 04:28:47;;;;;;;18.50;13.13;;;4.30;99.90;;;;;;4991889;28;20417;-74
2022/12/20 04:31:12;;;;;;;21.70;13.83;;;4.20;99.90;;;;;;4991601;28;20445;-74
2022/12/20 04:33:38;;;;;;;17.57;12.90;;;4.20;99.90;;;;;;4991854;28;20172;-74
2022/12/20 04:36:04;;;;;;;18.10;13.13;;;4.30;99.90;;;;;;4992195;28;20190;-75
2022/12/20 04:38:30;;;;;;;20.20;13.00;;;4.30;99.90;;;;;;4990515;28;20267;-74
2022/12/20 04:40:55;;;;;;;17.90;12.50;;;4.20;99.90;;;;;;4991784;28;20444;-75
2022/12/20 04:43:23;;;;;;;19.20;12.70;;;4.20;99.90;;;;;;4991829;28;20177;-75
2022/12/20 04:45:51;;;;;;;15.50;12.27;;;4.20;99.90;;;;;;4991669;28;20202;-74
2022/12/20 04:48:17;;;;;;;22.23;12.70;;;4.30;99.90;;;;;;4991951;28;20825;-75
2022/12/20 04:50:46;;;;;;;17.80;12.97;;;4.30;99.90;;;;;;4991504;28;20450;-75
2022/12/20 04:53:57;;;;;;;21.40;13.10;;;4.30;99.90;;;;;;4991909;28;20414;-75
2022/12/20 04:55:58;;;;;;;18.67;12.30;;;4.40;99.90;;;;;;4980987;28;20420;-75
2022/12/20 04:58:23;;;;;;;16.67;11.47;;;4.40;99.90;;;;;;4991756;28;20844;-74
2022/12/20 05:00:51;;;;;;;19.13;12.20;;;4.40;99.90;;;;;;4991426;28;20181;-75
2022/12/20 05:03:18;;;;;;;21.37;12.23;;;4.40;99.90;;;;;;4991695;28;20277;-73
2022/12/20 05:05:43;;;;;;;17.27;11.87;;;4.50;99.90;;;;;;4991485;28;20757;-75
2022/12/20 05:08:09;;;;;;;18.40;11.90;;;4.50;99.90;;;;;;4993091;28;20473;-74
2022/12/20 05:10:34;;;;;;;19.47;12.20;;;4.40;99.90;;;;;;4995064;28;20231;-72
2022/12/20 05:13:00;;;;;;;26.30;13.97;;;4.40;99.90;;;;;;4995223;28;20557;-74
2022/12/20 05:15:25;;;;;;;21.27;12.47;;;4.40;99.90;;;;;;4995057;28;20171;-75
2022/12/20 05:17:51;;;;;;;16.27;11.43;;;4.50;99.90;;;;;;4995220;28;20207;-74
2022/12/20 05:20:16;;;;;;;17.00;12.00;;;4.50;99.90;;;;;;4996097;28;20729;-73
2022/12/20 05:28:10;;;;;;;17.40;11.90;;;4.60;99.90;;;;;;4995224;28;20482;-75
2022/12/20 05:30:36;;;;;;;18.23;11.73;;;4.60;99.90;;;;;;4996261;28;20419;-74
2022/12/20 05:33:02;;;;;;;17.33;12.27;;;4.60;99.90;;;;;;4995890;28;20206;-75
2022/12/20 05:35:27;;;;;;;15.67;11.37;;;4.70;99.90;;;;;;4995731;28;20419;-74
2022/12/20 05:37:53;;;;;;;25.23;13.37;;;4.60;99.90;;;;;;4995795;28;20233;-75
2022/12/20 05:40:18;;;;;;;23.33;11.57;;;4.70;99.90;;;;;;4995554;28;20208;-74
2022/12/20 05:42:44;;;;;;;18.83;11.77;;;4.70;99.90;;;;;;4994335;28;20192;-75
2022/12/20 05:45:10;;;;;;;17.60;12.87;;;4.70;99.90;;;;;;4993397;28;20176;-75
2022/12/20 05:47:35;;;;;;;19.93;12.30;;;4.70;99.90;;;;;;4994444;28;20176;-75
2022/12/20 05:50:02;;;;;;;20.53;13.17;;;4.60;99.90;;;;;;4993443;28;20553;-74
2022/12/20 05:52:28;;;;;;;17.73;11.90;;;4.60;99.90;;;;;;4994238;28;20803;-73
2022/12/20 05:54:54;;;;;;;21.23;14.60;;;4.60;99.90;;;;;;4994567;28;20430;-75
2022/12/20 05:57:20;;;;;;;20.10;13.50;;;4.60;99.90;;;;;;4994455;28;20212;-75
2022/12/20 05:59:45;;;;;;;24.60;13.10;;;4.70;99.90;;;;;;4992969;28;20553;-75
2022/12/20 06:02:11;;;;;;;20.30;12.30;;;4.60;99.90;;;;;;4994215;28;20204;-74
2022/12/20 06:04:37;;;;;;;18.20;12.47;;;4.60;99.90;;;;;;4994100;28;20222;-73
2022/12/20 06:07:04;;;;;;;23.03;13.17;;;4.60;99.90;;;;;;4994344;28;20180;-74
2022/12/20 06:09:30;;;;;;;17.37;12.03;;;4.50;99.90;;;;;;4993929;28;20395;-74
2022/12/20 06:11:56;;;;;;;18.43;12.27;;;4.50;99.90;;;;;;4993963;28;20435;-74
2022/12/20 06:14:21;;;;;;;22.63;12.83;;;4.60;99.90;;;;;;4994342;28;20801;-74
2022/12/20 06:16:47;;;;;;;19.27;12.30;;;4.60;99.90;;;;;;4994041;28;20265;-74
2022/12/20 06:19:13;;;;;;;21.10;12.80;;;4.60;99.90;;;;;;4994236;28;20181;-74
2022/12/20 06:21:38;;;;;;;25.10;12.40;;;4.60;99.90;;;;;;4993470;28;20223;-75
2022/12/20 06:24:04;;;;;;;37.00;13.43;;;4.60;99.90;;;;;;4994176;28;20465;-74
2022/12/20 06:26:34;;;;;;;34.10;13.93;;;4.60;99.90;;;;;;4993525;28;20198;-75
2022/12/20 06:29:01;;;;;;;33.63;12.80;;;4.60;99.90;;;;;;4994422;28;20773;-75
2022/12/20 06:31:26;;;;;;;33.10;13.33;;;4.60;99.90;;;;;;4993110;28;20511;-73
2022/12/20 06:33:52;;;;;;;20.30;13.70;;;4.60;99.90;;;;;;4993942;28;20418;-75
2022/12/20 06:36:17;;;;;;;17.97;12.20;;;4.60;99.90;;;;;;4993498;28;20444;-75
2022/12/20 06:38:43;;;;;;;22.70;12.90;;;4.60;99.90;;;;;;4992891;28;20174;-75
2022/12/20 06:41:08;;;;;;;20.23;13.50;;;4.50;99.90;;;;;;4993261;28;20474;-75
2022/12/20 06:43:34;;;;;;;18.40;12.13;;;4.50;99.90;;;;;;4993793;28;20222;-74
2022/12/20 06:45:59;;;;;;;15.93;12.00;;;4.50;99.90;;;;;;4993425;28;20198;-75
2022/12/20 06:48:25;;;;;;;16.57;12.10;;;4.40;99.90;;;;;;4993859;28;20183;-74
2022/12/20 06:50:50;;;;;;;16.43;11.27;;;4.40;99.90;;;;;;4993212;28;20181;-74
2022/12/20 06:53:16;;;;;;;16.43;11.70;;;4.40;99.90;;;;;;4993450;28;20597;-74
2022/12/20 06:55:42;;;;;;;18.87;13.40;;;4.50;99.90;;;;;;4992792;28;20466;-74
2022/12/20 06:58:08;;;;;;;27.87;18.13;;;4.50;99.90;;;;;;4993152;28;20203;-74
2022/12/20 07:00:33;;;;;;;16.60;11.40;;;4.50;99.90;;;;;;4994087;28;20449;-74
2022/12/20 07:02:59;;;;;;;17.27;11.40;;;4.50;99.90;;;;;;4993796;28;20178;-74
2022/12/20 07:05:24;;;;;;;18.87;12.20;;;4.50;99.90;;;;;;4993301;28;20218;-73
2022/12/20 07:07:50;;;;;;;18.30;13.27;;;4.60;99.90;;;;;;4993486;28;20198;-73
2022/12/20 07:10:16;;;;;;;20.33;11.93;;;4.60;99.90;;;;;;4996383;28;20171;-75
2022/12/20 07:12:41;;;;;;;21.37;13.03;;;4.60;99.90;;;;;;4994981;28;20231;-75
2022/12/20 07:15:08;;;;;;;19.50;12.53;;;4.60;99.90;;;;;;4994597;28;20182;-72
2022/12/20 07:17:33;;;;;;;14.50;11.20;;;4.60;99.90;;;;;;4993072;28;20211;-71
2022/12/20 07:19:59;;;;;;;18.30;11.63;;;4.60;99.90;;;;;;4992805;28;20392;-72
2022/12/20 07:22:25;;;;;;;21.13;12.17;;;4.50;99.90;;;;;;4993018;28;20195;-74
2022/12/20 07:24:51;;;;;;;18.07;12.57;;;4.40;99.90;;;;;;4992800;28;20223;-72
2022/12/20 07:27:17;;;;;;;19.17;11.67;;;4.40;99.90;;;;;;4992768;28;20419;-73
2022/12/20 07:29:43;;;;;;;16.40;10.70;;;4.40;99.90;;;;;;4992501;28;20501;-72
2022/12/20 07:32:10;;;;;;;17.20;12.00;;;4.40;99.90;;;;;;4991763;28;20221;-73
2022/12/20 07:34:36;;;;;;;15.57;11.53;;;4.50;99.90;;;;;;4992419;28;20523;-71
2022/12/20 07:37:02;;;;;;;18.00;11.83;;;4.50;99.90;;;;;;4992660;28;20466;-71
2022/12/20 07:39:27;;;;;;;22.10;11.83;;;4.50;99.90;;;;;;4992453;28;20418;-73
2022/12/20 07:41:54;;;;;;;17.53;11.83;;;4.60;99.90;;;;;;4992389;28;20206;-73
2022/12/20 07:44:21;;;;;;;23.10;11.87;;;4.70;99.90;;;;;;4992827;28;20640;-74
2022/12/20 07:46:46;;;;;;;19.37;12.27;;;4.70;99.90;;;;;;4992578;28;20419;-74
2022/12/20 07:49:12;;;;;;;20.60;11.17;;;4.70;99.90;;;;;;4992574;28;20802;-74
2022/12/20 07:51:44;;;;;;;22.70;12.03;;;4.80;99.90;;;;;;4992120;28;20204;-74
2022/12/20 07:54:16;;;;;;;21.10;12.73;;;4.80;99.90;;;;;;4992763;28;20255;-73
2022/12/20 07:56:49;;;;;;;23.77;12.97;;;4.80;99.90;;;;;;4992235;28;20460;-73
2022/12/20 07:59:19;;;;;;;27.13;13.40;;;4.80;99.90;;;;;;4992675;28;20519;-72
2022/12/20 08:01:46;;;;;;;20.30;13.50;;;4.80;99.90;;;;;;4991749;28;20437;-75
2022/12/20 08:04:16;;;;;;;26.20;12.90;;;4.80;99.90;;;;;;4992346;28;20493;-74
2022/12/20 08:06:42;;;;;;;20.77;13.60;;;4.80;99.90;;;;;;4992010;28;20451;-74
2022/12/20 08:09:13;;;;;;;14.90;12.33;;;4.90;99.90;;;;;;4992755;28;20419;-73
2022/12/20 08:11:44;;;;;;;14.70;11.07;;;4.80;99.90;;;;;;4990550;28;20203;-74
2022/12/20 08:14:10;;;;;;;21.20;12.27;;;4.90;99.90;;;;;;4992357;28;21057;-75
2022/12/20 08:16:35;;;;;;;17.43;12.07;;;4.90;99.90;;;;;;4991542;28;20505;-74
2022/12/20 08:19:01;;;;;;;17.10;12.20;;;4.90;99.90;;;;;;4992234;28;20411;-74
2022/12/20 08:21:27;;;;;;;16.00;11.40;;;4.90;99.90;;;;;;4991467;28;20230;-74
2022/12/20 08:23:53;;;;;;;17.03;12.20;;;4.90;99.90;;;;;;4991948;28;20171;-74
2022/12/20 08:26:19;;;;;;;16.40;12.20;;;5.00;99.90;;;;;;4991987;28;20830;-74
2022/12/20 08:28:45;;;;;;;17.37;11.80;;;5.00;99.90;;;;;;4991970;28;20284;-74
2022/12/20 08:31:11;;;;;;;21.43;12.30;;;5.00;99.90;;;;;;4991411;28;20214;-74
2022/12/20 08:33:39;;;;;;;16.33;11.07;;;5.00;99.90;;;;;;4991782;28;20448;-74
2022/12/20 08:36:07;;;;;;;24.25;12.00;;;5.10;99.90;;;;;;4992209;28;20493;-74
2022/12/20 08:38:34;;;;;;;15.80;11.00;;;5.10;99.90;;;;;;4991578;28;20417;-73
2022/12/20 08:41:09;;;;;;;19.47;10.93;;;5.20;99.90;;;;;;4990531;28;20448;-74
2022/12/20 08:43:35;;;;;;;19.20;11.37;;;5.20;99.90;;;;;;4993641;28;20419;-73
2022/12/20 08:46:01;;;;;;;14.00;10.37;;;5.30;99.90;;;;;;4995774;28;20512;-74
2022/12/20 08:48:27;;;;;;;18.70;10.17;;;5.30;99.90;;;;;;4995567;28;20456;-73
2022/12/20 08:50:59;;;;;;;18.70;10.73;;;5.50;99.90;;;;;;4995550;28;20459;-74
2022/12/20 08:53:25;;;;;;;17.43;11.00;;;5.60;99.90;;;;;;4995471;28;20857;-74
2022/12/20 08:55:52;;;;;;;16.40;10.43;;;5.70;99.90;;;;;;4995499;28;20421;-75
2022/12/20 08:58:18;;;;;;;13.80;10.07;;;5.70;99.90;;;;;;4995617;28;20494;-75
2022/12/20 09:00:44;;;;;;;16.27;9.97;;;5.80;99.90;;;;;;4995211;28;20419;-73
2022/12/20 09:03:10;;;;;;;14.00;9.93;;;6.00;99.90;;;;;;4994075;28;20423;-75
2022/12/20 09:05:41;;;;;;;13.33;9.70;;;6.10;99.90;;;;;;4995355;28;20424;-74
2022/12/20 09:08:07;;;;;;;19.90;11.67;;;6.20;99.90;;;;;;4995559;28;20531;-73
2022/12/20 09:10:33;;;;;;;15.53;10.07;;;6.20;99.90;;;;;;4995225;28;20418;-74
2022/12/20 09:12:58;;;;;;;14.63;11.27;;;6.20;99.90;;;;;;4995341;28;20199;-74
2022/12/20 09:15:26;;;;;;;16.43;8.80;;;6.20;99.90;;;;;;4995092;28;20188;-74
2022/12/20 09:17:51;;;;;;;17.73;10.90;;;6.20;99.90;;;;;;4995350;28;20206;-74
2022/12/20 09:20:17;;;;;;;12.47;9.07;;;6.30;99.90;;;;;;4995255;28;20417;-74
2022/12/20 09:22:43;;;;;;;15.77;10.33;;;6.30;99.90;;;;;;4994754;28;20658;-73
2022/12/20 09:25:08;;;;;;;16.80;9.73;;;6.30;99.90;;;;;;4995020;28;20733;-73
2022/12/20 09:27:34;;;;;;;13.50;9.50;;;6.40;99.90;;;;;;4995249;28;20207;-73
2022/12/20 09:29:59;;;;;;;23.60;10.20;;;6.50;99.90;;;;;;4995107;28;20245;-73
2022/12/20 09:32:25;;;;;;;13.40;10.30;;;6.50;99.90;;;;;;4994695;28;20211;-73
2022/12/20 09:34:50;;;;;;;12.30;9.10;;;6.50;99.90;;;;;;4994765;28;20189;-73
2022/12/20 09:37:16;;;;;;;12.57;8.90;;;6.60;99.90;;;;;;4993518;28;20580;-72
2022/12/20 09:39:41;;;;;;;13.17;9.83;;;6.60;99.90;;;;;;4994773;28;20173;-72
2022/12/20 09:42:08;;;;;;;15.53;9.97;;;6.50;99.90;;;;;;4994362;28;20228;-73
2022/12/20 09:44:37;;;;;;;16.80;9.03;;;6.60;99.90;;;;;;4994769;28;20192;-74
2022/12/20 09:47:06;;;;;;;18.43;9.73;;;6.50;99.90;;;;;;4997070;28;20418;-74
2022/12/20 09:49:35;;;;;;;25.30;16.30;;;6.50;99.90;;;;;;4997861;28;20414;-73
2022/12/20 09:52:33;;;;;;;17.13;9.73;;;6.50;99.90;;;;;;4994570;28;20443;-73
2022/12/20 09:55:21;;;;;;;15.20;9.73;;;6.60;99.90;;;;;;4973816;28;20768;-73
2022/12/20 09:57:55;;;;;;;13.83;8.70;;;6.70;99.90;;;;;;4994692;28;20466;-74
2022/12/20 10:00:21;;;;;;;16.33;8.10;;;6.90;99.90;;;;;;4994355;28;20402;-73
2022/12/20 10:02:47;;;;;;;15.27;8.27;;;7.00;99.90;;;;;;4993822;28;20448;-74
2022/12/20 10:05:27;;;;;;;11.33;7.20;;;7.10;99.90;;;;;;4993053;28;20710;-74
2022/12/20 10:08:04;;;;;;;17.87;8.10;;;7.20;99.90;;;;;;4994077;28;20448;-74
2022/12/20 10:10:56;;;;;;;11.93;6.50;;;7.30;99.90;;;;;;4993979;28;20782;-73
2022/12/20 10:13:57;;;;;;;12.53;7.30;;;7.40;99.90;;;;;;4993902;28;20412;-74
2022/12/20 10:16:38;;;;;;;13.30;7.10;;;7.40;99.90;;;;;;4993970;28;20926;-73
2022/12/20 10:19:13;;;;;;;13.30;7.27;;;7.50;99.90;;;;;;4993833;28;20468;-73
2022/12/20 10:21:44;;;;;;;9.53;6.97;;;7.50;99.90;;;;;;4993495;28;20433;-74
2022/12/20 10:24:19;;;;;;;13.13;7.60;;;7.50;99.90;;;;;;4994004;28;20424;-75
2022/12/20 10:26:49;;;;;;;53.83;10.00;;;7.60;99.90;;;;;;4993689;28;20393;-74
2022/12/20 10:29:15;;;;;;;61.90;8.20;;;7.60;99.90;;;;;;4993811;28;20810;-73
2022/12/20 10:31:40;;;;;;;68.57;8.00;;;7.60;99.90;;;;;;4993433;28;20482;-76
2022/12/20 10:34:06;;;;;;;68.93;9.33;;;7.70;99.90;;;;;;4992819;28;20268;-74
2022/12/20 10:36:34;;;;;;;58.77;12.07;;;7.80;99.90;;;;;;4993568;28;20550;-73
2022/12/20 10:39:06;;;;;;;156.27;101.77;;;7.80;99.90;;;;;;4993688;28;20987;-73
2022/12/20 10:41:43;;;;;;;91.23;13.03;;;7.80;99.90;;;;;;4993332;28;20459;-73
2022/12/20 10:44:21;;;;;;;93.90;16.50;;;7.80;99.90;;;;;;4993743;28;20399;-73
2022/12/20 10:46:52;;;;;;;93.47;19.50;;;7.80;99.90;;;;;;4993255;28;20421;-73
2022/12/20 10:49:27;;;;;;;60.93;9.10;;;7.80;99.90;;;;;;4993392;28;20512;-73
2022/12/20 10:52:18;;;;;;;90.93;12.17;;;7.80;99.90;;;;;;4993021;28;20442;-73
2022/12/20 10:54:45;;;;;;;21.00;9.40;;;7.80;99.90;;;;;;4992824;28;20437;-73
2022/12/20 10:57:17;;;;;;;21.70;10.53;;;7.70;99.90;;;;;;4993267;28;20514;-74
2022/12/20 10:59:47;;;;;;;21.57;10.30;;;7.70;99.90;;;;;;4992979;28;20417;-73
2022/12/20 11:02:29;;;;;;;25.00;10.70;;;7.70;99.90;;;;;;4993238;28;20437;-73
2022/12/20 11:05:09;;;;;;;20.33;8.90;;;7.60;99.90;;;;;;4992693;28;20782;-73
2022/12/20 11:07:36;;;;;;;22.13;9.20;;;7.70;99.90;;;;;;4992985;28;21178;-72
2022/12/20 11:10:25;;;;;;;25.90;9.03;;;7.70;99.90;;;;;;4993010;28;20424;-72
2022/12/20 11:12:58;;;;;;;23.47;8.87;;;7.70;99.90;;;;;;4992588;28;20453;-73
2022/12/20 11:15:30;;;;;;;25.77;10.20;;;7.80;99.90;;;;;;4992927;28;20457;-73
2022/12/20 11:18:02;;;;;;;24.70;11.03;;;7.80;99.90;;;;;;4992934;28;20547;-74
2022/12/20 11:20:41;;;;;;;32.57;13.23;;;7.90;99.90;;;;;;4991426;28;20802;-73
2022/12/20 11:23:30;;;;;;;27.67;12.93;;;8.00;99.90;;;;;;4993081;28;20502;-73
2022/12/20 11:26:19;;;;;;;23.93;10.43;;;8.10;99.90;;;;;;4992917;28;20412;-73
2022/12/20 11:29:10;;;;;;;28.53;11.60;;;8.10;99.90;;;;;;4992239;28;20417;-74
2022/12/20 11:32:01;;;;;;;25.30;10.43;;;8.10;99.90;;;;;;4976152;28;20478;-73
2022/12/20 11:34:29;;;;;;;26.43;10.77;;;8.20;99.90;;;;;;4992786;28;20683;-73
2022/12/20 11:37:13;;;;;;;26.43;10.67;;;8.20;99.90;;;;;;4992317;28;20825;-73
2022/12/20 11:40:04;;;;;;;22.20;10.27;;;8.20;99.90;;;;;;4992397;28;20499;-73
2022/12/20 11:42:47;;;;;;;25.00;9.63;;;8.30;99.90;;;;;;4992182;28;20499;-73
2022/12/20 11:45:45;;;;;;;24.13;9.00;;;8.30;99.90;;;;;;4992808;28;20437;-74
2022/12/20 11:48:35;;;;;;;23.53;9.50;;;8.40;99.90;;;;;;4992867;28;20831;-74
2022/12/20 11:51:04;;;;;;;19.63;9.80;;;8.30;99.90;;;;;;4992644;28;20489;-73
2022/12/20 11:53:52;;;;;;;23.10;8.60;;;8.30;99.90;;;;;;4991110;28;20515;-74
2022/12/20 11:56:25;;;;;;;17.87;7.60;;;8.40;99.90;;;;;;4992573;28;20800;-74
2022/12/20 11:59:06;;;;;;;21.43;8.50;;;8.40;99.90;;;;;;4992405;28;21034;-74
2022/12/20 12:01:42;;;;;;;18.70;9.30;;;8.40;99.90;;;;;;4991911;28;20435;-72
2022/12/20 12:04:18;;;;;;;32.43;11.10;;;8.40;99.90;;;;;;4992243;28;20503;-73
2022/12/20 12:06:55;;;;;;;23.23;10.20;;;8.40;99.90;;;;;;4992311;28;21090;-73
2022/12/20 12:09:32;;;;;;;20.10;9.10;;;8.40;99.90;;;;;;4992355;28;20420;-73
2022/12/20 12:12:07;;;;;;;21.03;8.67;;;8.40;99.90;;;;;;4991911;28;20523;-73
2022/12/20 12:14:38;;;;;;;31.77;7.40;;;8.40;99.90;;;;;;4991905;28;20892;-74
2022/12/20 12:17:16;;;;;;;20.07;7.83;;;8.40;99.90;;;;;;4993107;28;20797;-75
2022/12/20 12:19:47;;;;;;;28.13;14.67;;;8.40;99.90;;;;;;4993901;28;20427;-74
2022/12/20 12:22:21;;;;;;;61.33;31.63;;;8.40;99.90;;;;;;4993772;28;20901;-74
2022/12/20 12:24:54;;;;;;;25.63;13.73;;;8.50;99.90;;;;;;4992411;28;20440;-73
2022/12/20 12:27:26;;;;;;;17.87;10.67;;;8.40;99.90;;;;;;4992337;28;20728;-74
2022/12/20 12:29:55;;;;;;;13.50;8.83;;;8.50;99.90;;;;;;4991654;28;20471;-74
2022/12/20 12:32:36;;;;;;;22.87;10.50;;;8.50;99.90;;;;;;4991398;28;20880;-73
2022/12/20 12:35:21;;;;;;;15.43;8.97;;;8.50;99.90;;;;;;4991861;28;20447;-73
2022/12/20 12:37:49;;;;;;;21.23;8.97;;;8.60;99.90;;;;;;4991636;28;20973;-74
2022/12/20 12:40:37;;;;;;;19.13;9.37;;;8.60;99.90;;;;;;4990364;28;20469;-73
2022/12/20 12:43:22;;;;;;;10.07;8.37;;;8.70;99.90;;;;;;4991692;28;20503;-74
2022/12/20 12:45:50;;;;;;;13.47;7.80;;;8.70;99.90;;;;;;4991429;28;20413;-72
2022/12/20 12:48:35;;;;;;;16.97;9.10;;;8.70;99.90;;;;;;4991976;28;20428;-74
2022/12/20 12:51:03;;;;;;;13.63;8.70;;;8.80;99.90;;;;;;4980807;28;20440;-73
2022/12/20 12:53:34;;;;;;;12.00;8.00;;;8.80;99.90;;;;;;4991742;28;20775;-73
2022/12/20 12:56:26;;;;;;;12.50;8.53;;;8.80;99.90;;;;;;4991749;28;20413;-72
2022/12/20 12:59:08;;;;;;;12.93;7.23;;;8.90;99.90;;;;;;4991591;28;20941;-74
2022/12/20 13:02:04;;;;;;;12.17;6.87;;;8.90;99.90;;;;;;4989803;28;20976;-74
2022/12/20 13:04:58;;;;;;;21.23;8.40;;;9.00;99.90;;;;;;4991641;28;20434;-73
2022/12/20 13:07:42;;;;;;;15.13;7.20;;;9.00;99.90;;;;;;4991466;28;20409;-74
2022/12/20 13:10:07;;;;;;;15.60;7.30;;;9.00;99.90;;;;;;4991538;28;20413;-73
2022/12/20 13:12:36;;;;;;;16.23;8.30;;;9.10;99.90;;;;;;4990905;28;20500;-74
2022/12/20 13:15:21;;;;;;;8.90;6.77;;;9.10;99.90;;;;;;4991626;28;20214;-74
2022/12/20 13:18:21;;;;;;;11.07;7.00;;;9.10;99.90;;;;;;4991069;28;20520;-74
2022/12/20 13:21:29;;;;;;;9.77;6.50;;;9.10;99.90;;;;;;4980302;28;20541;-74
2022/12/20 13:24:28;;;;;;;10.07;7.20;;;9.10;99.90;;;;;;4991295;28;20435;-74
2022/12/20 13:26:54;;;;;;;10.47;7.53;;;9.10;99.90;;;;;;4991420;28;20816;-74
2022/12/20 13:29:31;;;;;;;11.00;7.73;;;9.10;99.90;;;;;;4992895;28;20417;-74
2022/12/20 13:31:57;;;;;;;9.73;7.03;;;9.00;99.90;;;;;;4994386;28;20463;-74
2022/12/20 13:34:38;;;;;;;10.70;6.77;;;9.00;99.90;;;;;;4994907;28;20410;-74
2022/12/20 13:37:25;;;;;;;12.60;7.83;;;8.90;99.90;;;;;;4995213;28;20213;-73
2022/12/20 13:39:51;;;;;;;11.50;7.47;;;8.80;99.90;;;;;;4994839;28;20817;-73
2022/12/20 13:42:33;;;;;;;15.70;8.80;;;8.80;99.90;;;;;;4994468;28;20450;-73
2022/12/20 13:45:02;;;;;;;13.57;8.70;;;8.80;99.90;;;;;;4994723;28;20261;-74
2022/12/20 13:47:53;;;;;;;15.20;10.40;;;8.70;99.90;;;;;;4994424;28;20424;-74
2022/12/20 13:50:39;;;;;;;11.00;8.20;;;8.70;99.90;;;;;;4994458;28;20981;-72
2022/12/20 13:53:06;;;;;;;14.10;8.60;;;8.70;99.90;;;;;;4994366;28;20497;-74
2022/12/20 13:55:34;;;;;;;12.30;8.43;;;8.60;99.90;;;;;;4994007;28;20420;-73
2022/12/20 13:58:24;;;;;;;16.20;8.47;;;8.60;99.90;;;;;;4994398;28;20461;-72
2022/12/20 14:00:51;;;;;;;15.37;9.63;;;8.60;99.90;;;;;;4994061;28;20416;-74
2022/12/20 14:03:19;;;;;;;9.97;7.97;;;8.60;99.90;;;;;;4994143;28;20453;-73
2022/12/20 14:05:45;;;;;;;14.37;8.43;;;8.60;99.90;;;;;;4977534;28;20465;-74
2022/12/20 14:08:17;;;;;;;16.63;8.63;;;8.60;99.90;;;;;;4973961;28;20439;-73
2022/12/20 14:10:43;;;;;;;12.63;8.83;;;8.60;99.90;;;;;;4973479;28;20256;-74
2022/12/20 14:13:20;;;;;;;12.17;8.83;;;8.60;99.90;;;;;;4973426;28;20452;-73
2022/12/20 14:15:46;;;;;;;13.70;8.77;;;8.60;99.90;;;;;;4973398;28;20594;-74
2022/12/20 14:18:23;;;;;;;13.07;8.47;;;8.60;99.90;;;;;;4973512;28;20497;-74
2022/12/20 14:20:52;;;;;;;14.30;7.97;;;8.50;99.90;;;;;;4973279;28;20249;-74
2022/12/20 14:23:21;;;;;;;10.80;7.93;;;8.60;99.90;;;;;;4973599;28;20454;-73
2022/12/20 14:25:55;;;;;;;15.63;8.00;;;8.50;99.90;;;;;;4992748;28;20518;-72
2022/12/20 14:28:56;;;;;;;21.10;8.20;;;8.50;99.90;;;;;;4993425;28;20547;-74
2022/12/20 14:31:25;;;;;;;16.77;8.10;;;8.50;99.90;;;;;;4989119;28;20619;-73
2022/12/20 14:33:59;;;;;;;11.03;8.13;;;8.50;99.90;;;;;;4993030;28;20529;-74